sensor_id;sensor_type;location;lat;lon;timestamp;P1;durP1;ratioP1;P2;durP2;ratioP2
51515;SDS011;37603;55.614;37.326;2023-09-07T00:00:25;3.6;;;1.3;;
51515;SDS011;37603;55.614;37.326;2023-09-07T00:06:24;2.3;;;1.0;;
51515;SDS011;37603;55.614;37.326;2023-09-07T00:12:23;3.5;;;1.2;;
51515;SDS011;37603;55.614;37.326;2023-09-07T00:24:22;2.5;;;1.3;;
51515;SDS011;37603;55.614;37.326;2023-09-07T00:30:21;2.7;;;1.1;;
51515;SDS011;37603;55.614;37.326;2023-09-07T00:36:25;2.1;;;1.0;;
51515;SDS011;37603;55.614;37.326;2023-09-07T00:42:19;2.5;;;1.1;;
51515;SDS011;37603;55.614;37.326;2023-09-07T00:48:18;2.7;;;1.2;;
51515;SDS011;37603;55.614;37.326;2023-09-07T00:54:18;2.0;;;1.2;;
51515;SDS011;37603;55.614;37.326;2023-09-07T01:00:17;2.8;;;1.1;;
51515;SDS011;37603;55.614;37.326;2023-09-07T01:06:17;1.9;;;1.0;;
51515;SDS011;37603;55.614;37.326;2023-09-07T01:12:15;4.5;;;1.1;;
51515;SDS011;37603;55.614;37.326;2023-09-07T01:18:14;3.1;;;1.0;;
51515;SDS011;37603;55.614;37.326;2023-09-07T01:24:13;1.7;;;1.0;;
51515;SDS011;37603;55.614;37.326;2023-09-07T01:30:12;3.2;;;1.1;;
51515;SDS011;37603;55.614;37.326;2023-09-07T01:36:11;2.8;;;1.2;;
51515;SDS011;37603;55.614;37.326;2023-09-07T01:42:11;2.6;;;1.1;;
51515;SDS011;37603;55.614;37.326;2023-09-07T01:48:10;2.1;;;1.0;;
51515;SDS011;37603;55.614;37.326;2023-09-07T01:54:09;2.5;;;1.0;;
51515;SDS011;37603;55.614;37.326;2023-09-07T02:00:08;1.6;;;1.0;;
51515;SDS011;37603;55.614;37.326;2023-09-07T02:06:07;2.9;;;1.0;;
51515;SDS011;37603;55.614;37.326;2023-09-07T02:12:07;2.5;;;1.1;;
51515;SDS011;37603;55.614;37.326;2023-09-07T02:18:05;3.7;;;1.1;;
51515;SDS011;37603;55.614;37.326;2023-09-07T02:24:05;3.3;;;1.2;;
51515;SDS011;37603;55.614;37.326;2023-09-07T02:30:08;3.1;;;1.3;;
51515;SDS011;37603;55.614;37.326;2023-09-07T02:36:03;4.4;;;1.4;;
51515;SDS011;37603;55.614;37.326;2023-09-07T02:42:02;3.2;;;1.3;;
51515;SDS011;37603;55.614;37.326;2023-09-07T02:48:01;2.8;;;1.6;;
51515;SDS011;37603;55.614;37.326;2023-09-07T02:54:00;2.3;;;1.3;;
51515;SDS011;37603;55.614;37.326;2023-09-07T03:00:00;3.3;;;1.5;;
51515;SDS011;37603;55.614;37.326;2023-09-07T03:05:59;3.6;;;1.4;;
51515;SDS011;37603;55.614;37.326;2023-09-07T03:11:58;2.5;;;1.5;;
51515;SDS011;37603;55.614;37.326;2023-09-07T03:17:57;3.7;;;1.5;;
51515;SDS011;37603;55.614;37.326;2023-09-07T03:23:56;4.9;;;1.7;;
51515;SDS011;37603;55.614;37.326;2023-09-07T03:29:55;3.5;;;1.6;;
51515;SDS011;37603;55.614;37.326;2023-09-07T03:35:55;2.3;;;1.2;;
51515;SDS011;37603;55.614;37.326;2023-09-07T03:41:53;2.6;;;1.3;;
51515;SDS011;37603;55.614;37.326;2023-09-07T03:47:53;2.4;;;1.5;;
51515;SDS011;37603;55.614;37.326;2023-09-07T03:53:52;4.4;;;1.9;;
51515;SDS011;37603;55.614;37.326;2023-09-07T03:59:51;4.9;;;1.4;;
51515;SDS011;37603;55.614;37.326;2023-09-07T04:05:50;3.3;;;1.3;;
51515;SDS011;37603;55.614;37.326;2023-09-07T04:11:49;2.9;;;1.3;;
51515;SDS011;37603;55.614;37.326;2023-09-07T04:17:49;3.0;;;1.3;;
51515;SDS011;37603;55.614;37.326;2023-09-07T04:23:51;5.4;;;1.5;;
51515;SDS011;37603;55.614;37.326;2023-09-07T04:29:47;2.2;;;1.3;;
51515;SDS011;37603;55.614;37.326;2023-09-07T04:35:46;2.6;;;1.6;;
51515;SDS011;37603;55.614;37.326;2023-09-07T04:41:45;2.3;;;1.5;;
51515;SDS011;37603;55.614;37.326;2023-09-07T04:47:44;4.4;;;1.5;;
51515;SDS011;37603;55.614;37.326;2023-09-07T04:53:43;3.1;;;1.5;;
51515;SDS011;37603;55.614;37.326;2023-09-07T04:59:42;2.7;;;1.3;;
51515;SDS011;37603;55.614;37.326;2023-09-07T05:05:42;4.6;;;1.5;;
51515;SDS011;37603;55.614;37.326;2023-09-07T05:11:41;2.0;;;1.2;;
51515;SDS011;37603;55.614;37.326;2023-09-07T05:23:39;4.3;;;1.4;;
51515;SDS011;37603;55.614;37.326;2023-09-07T05:29:38;2.5;;;1.1;;
51515;SDS011;37603;55.614;37.326;2023-09-07T05:35:38;2.7;;;1.2;;
51515;SDS011;37603;55.614;37.326;2023-09-07T05:41:37;4.1;;;1.2;;
51515;SDS011;37603;55.614;37.326;2023-09-07T05:47:36;3.0;;;1.3;;
51515;SDS011;37603;55.614;37.326;2023-09-07T05:53:35;3.5;;;1.1;;
51515;SDS011;37603;55.614;37.326;2023-09-07T05:59:35;3.4;;;1.2;;
51515;SDS011;37603;55.614;37.326;2023-09-07T06:05:34;1.7;;;0.9;;
51515;SDS011;37603;55.614;37.326;2023-09-07T06:11:33;3.6;;;1.2;;
51515;SDS011;37603;55.614;37.326;2023-09-07T06:17:33;2.6;;;1.2;;
51515;SDS011;37603;55.614;37.326;2023-09-07T06:23:32;2.1;;;0.9;;
51515;SDS011;37603;55.614;37.326;2023-09-07T06:29:31;1.9;;;0.9;;
51515;SDS011;37603;55.614;37.326;2023-09-07T06:35:31;2.0;;;1.0;;
51515;SDS011;37603;55.614;37.326;2023-09-07T06:41:30;4.1;;;1.2;;
51515;SDS011;37603;55.614;37.326;2023-09-07T06:47:29;2.1;;;0.8;;
51515;SDS011;37603;55.614;37.326;2023-09-07T06:53:29;3.3;;;0.9;;
51515;SDS011;37603;55.614;37.326;2023-09-07T06:59:28;4.2;;;1.1;;
51515;SDS011;37603;55.614;37.326;2023-09-07T07:05:27;6.2;;;1.1;;
51515;SDS011;37603;55.614;37.326;2023-09-07T07:11:27;2.3;;;0.7;;
51515;SDS011;37603;55.614;37.326;2023-09-07T07:17:26;2.5;;;0.8;;
51515;SDS011;37603;55.614;37.326;2023-09-07T07:23:26;3.3;;;0.9;;
51515;SDS011;37603;55.614;37.326;2023-09-07T07:29:25;3.2;;;0.9;;
51515;SDS011;37603;55.614;37.326;2023-09-07T07:35:24;3.8;;;0.8;;
51515;SDS011;37603;55.614;37.326;2023-09-07T07:41:26;2.3;;;1.1;;
51515;SDS011;37603;55.614;37.326;2023-09-07T07:47:23;4.0;;;0.8;;
51515;SDS011;37603;55.614;37.326;2023-09-07T07:53:23;4.2;;;1.0;;
51515;SDS011;37603;55.614;37.326;2023-09-07T07:59:22;1.8;;;0.6;;
51515;SDS011;37603;55.614;37.326;2023-09-07T08:11:21;2.8;;;0.7;;
51515;SDS011;37603;55.614;37.326;2023-09-07T08:17:21;1.7;;;0.6;;
51515;SDS011;37603;55.614;37.326;2023-09-07T08:23:20;2.8;;;1.3;;
51515;SDS011;37603;55.614;37.326;2023-09-07T08:29:20;1.7;;;0.6;;
51515;SDS011;37603;55.614;37.326;2023-09-07T08:35:19;1.9;;;0.6;;
51515;SDS011;37603;55.614;37.326;2023-09-07T08:41:18;1.6;;;0.6;;
51515;SDS011;37603;55.614;37.326;2023-09-07T08:47:18;0.6;;;0.4;;
51515;SDS011;37603;55.614;37.326;2023-09-07T08:53:18;2.6;;;0.9;;
51515;SDS011;37603;55.614;37.326;2023-09-07T08:59:17;2.1;;;0.6;;
51515;SDS011;37603;55.614;37.326;2023-09-07T09:05:17;1.7;;;0.5;;
51515;SDS011;37603;55.614;37.326;2023-09-07T09:11:16;1.3;;;0.5;;
51515;SDS011;37603;55.614;37.326;2023-09-07T09:17:15;0.9;;;0.5;;
51515;SDS011;37603;55.614;37.326;2023-09-07T09:23:15;2.1;;;0.5;;
51515;SDS011;37603;55.614;37.326;2023-09-07T09:29:14;2.2;;;0.6;;
51515;SDS011;37603;55.614;37.326;2023-09-07T09:35:16;1.7;;;0.6;;
51515;SDS011;37603;55.614;37.326;2023-09-07T09:41:13;3.1;;;0.8;;
51515;SDS011;37603;55.614;37.326;2023-09-07T09:47:13;2.0;;;0.6;;
51515;SDS011;37603;55.614;37.326;2023-09-07T09:53:12;2.3;;;0.7;;
51515;SDS011;37603;55.614;37.326;2023-09-07T09:59:12;3.1;;;0.6;;
51515;SDS011;37603;55.614;37.326;2023-09-07T10:05:11;5.2;;;0.7;;
51515;SDS011;37603;55.614;37.326;2023-09-07T10:11:11;1.8;;;0.6;;
51515;SDS011;37603;55.614;37.326;2023-09-07T10:17:10;1.5;;;0.6;;
51515;SDS011;37603;55.614;37.326;2023-09-07T10:23:10;0.9;;;0.4;;
51515;SDS011;37603;55.614;37.326;2023-09-07T10:29:13;1.1;;;0.5;;
51515;SDS011;37603;55.614;37.326;2023-09-07T10:35:12;2.4;;;0.6;;
51515;SDS011;37603;55.614;37.326;2023-09-07T10:41:08;1.9;;;0.7;;
51515;SDS011;37603;55.614;37.326;2023-09-07T10:47:08;2.3;;;0.7;;
51515;SDS011;37603;55.614;37.326;2023-09-07T10:53:07;1.4;;;0.5;;
51515;SDS011;37603;55.614;37.326;2023-09-07T10:59:07;3.1;;;0.8;;
51515;SDS011;37603;55.614;37.326;2023-09-07T11:05:07;1.9;;;0.6;;
51515;SDS011;37603;55.614;37.326;2023-09-07T11:11:06;4.4;;;0.6;;
51515;SDS011;37603;55.614;37.326;2023-09-07T11:17:05;3.2;;;1.0;;
51515;SDS011;37603;55.614;37.326;2023-09-07T11:23:05;2.7;;;0.6;;
51515;SDS011;37603;55.614;37.326;2023-09-07T11:29:04;3.9;;;0.6;;
51515;SDS011;37603;55.614;37.326;2023-09-07T11:35:04;3.0;;;0.6;;
51515;SDS011;37603;55.614;37.326;2023-09-07T11:41:04;2.4;;;0.9;;
51515;SDS011;37603;55.614;37.326;2023-09-07T11:47:03;2.5;;;0.9;;
51515;SDS011;37603;55.614;37.326;2023-09-07T11:53:03;2.2;;;0.8;;
51515;SDS011;37603;55.614;37.326;2023-09-07T11:59:02;2.1;;;1.0;;
51515;SDS011;37603;55.614;37.326;2023-09-07T12:05:02;2.6;;;0.5;;
51515;SDS011;37603;55.614;37.326;2023-09-07T12:11:02;3.0;;;1.0;;
51515;SDS011;37603;55.614;37.326;2023-09-07T12:17:01;2.8;;;0.8;;
51515;SDS011;37603;55.614;37.326;2023-09-07T12:23:01;2.5;;;0.9;;
51515;SDS011;37603;55.614;37.326;2023-09-07T12:29:00;3.8;;;0.9;;
51515;SDS011;37603;55.614;37.326;2023-09-07T12:35:00;1.6;;;0.9;;
51515;SDS011;37603;55.614;37.326;2023-09-07T12:40:59;3.6;;;0.9;;
51515;SDS011;37603;55.614;37.326;2023-09-07T12:47:04;1.9;;;0.8;;
51515;SDS011;37603;55.614;37.326;2023-09-07T12:52:59;3.3;;;0.9;;
51515;SDS011;37603;55.614;37.326;2023-09-07T12:58:58;4.7;;;2.3;;
51515;SDS011;37603;55.614;37.326;2023-09-07T13:04:58;1.0;;;0.7;;
51515;SDS011;37603;55.614;37.326;2023-09-07T13:10:57;3.7;;;0.9;;
51515;SDS011;37603;55.614;37.326;2023-09-07T13:16:57;2.6;;;0.8;;
51515;SDS011;37603;55.614;37.326;2023-09-07T13:22:56;2.8;;;1.0;;
51515;SDS011;37603;55.614;37.326;2023-09-07T13:28:56;8.2;;;1.5;;
51515;SDS011;37603;55.614;37.326;2023-09-07T13:34:55;7.1;;;1.4;;
51515;SDS011;37603;55.614;37.326;2023-09-07T13:40:55;2.4;;;0.6;;
51515;SDS011;37603;55.614;37.326;2023-09-07T13:46:55;1.7;;;0.7;;
51515;SDS011;37603;55.614;37.326;2023-09-07T13:52:54;2.7;;;0.6;;
51515;SDS011;37603;55.614;37.326;2023-09-07T13:58:54;2.0;;;0.7;;
51515;SDS011;37603;55.614;37.326;2023-09-07T14:04:53;2.5;;;1.0;;
51515;SDS011;37603;55.614;37.326;2023-09-07T14:10:53;2.6;;;0.8;;
51515;SDS011;37603;55.614;37.326;2023-09-07T14:16:52;3.3;;;1.3;;
51515;SDS011;37603;55.614;37.326;2023-09-07T14:22:52;5.1;;;0.9;;
51515;SDS011;37603;55.614;37.326;2023-09-07T14:28:52;3.6;;;0.8;;
51515;SDS011;37603;55.614;37.326;2023-09-07T14:34:51;6.3;;;1.0;;
51515;SDS011;37603;55.614;37.326;2023-09-07T14:40:51;4.0;;;0.9;;
51515;SDS011;37603;55.614;37.326;2023-09-07T14:46:50;1.9;;;0.9;;
51515;SDS011;37603;55.614;37.326;2023-09-07T14:52:50;3.0;;;1.0;;
51515;SDS011;37603;55.614;37.326;2023-09-07T15:04:54;3.8;;;0.9;;
51515;SDS011;37603;55.614;37.326;2023-09-07T15:10:49;1.1;;;0.8;;
51515;SDS011;37603;55.614;37.326;2023-09-07T15:16:48;3.0;;;1.5;;
51515;SDS011;37603;55.614;37.326;2023-09-07T15:22:48;3.3;;;1.0;;
51515;SDS011;37603;55.614;37.326;2023-09-07T15:28:47;2.0;;;1.1;;
51515;SDS011;37603;55.614;37.326;2023-09-07T15:34:47;2.7;;;1.0;;
51515;SDS011;37603;55.614;37.326;2023-09-07T15:40:47;3.8;;;1.1;;
51515;SDS011;37603;55.614;37.326;2023-09-07T15:46:46;3.9;;;1.1;;
51515;SDS011;37603;55.614;37.326;2023-09-07T15:52:46;5.2;;;1.7;;
51515;SDS011;37603;55.614;37.326;2023-09-07T15:58:45;6.4;;;1.6;;
51515;SDS011;37603;55.614;37.326;2023-09-07T16:04:44;6.2;;;2.5;;
51515;SDS011;37603;55.614;37.326;2023-09-07T16:10:44;4.9;;;2.0;;
51515;SDS011;37603;55.614;37.326;2023-09-07T16:16:43;3.7;;;1.8;;
51515;SDS011;37603;55.614;37.326;2023-09-07T16:22:43;3.8;;;2.0;;
51515;SDS011;37603;55.614;37.326;2023-09-07T16:28:47;4.1;;;2.3;;
51515;SDS011;37603;55.614;37.326;2023-09-07T16:34:42;4.7;;;2.7;;
51515;SDS011;37603;55.614;37.326;2023-09-07T16:40:42;7.1;;;2.0;;
51515;SDS011;37603;55.614;37.326;2023-09-07T16:46:41;5.3;;;2.2;;
51515;SDS011;37603;55.614;37.326;2023-09-07T16:52:40;5.5;;;2.0;;
51515;SDS011;37603;55.614;37.326;2023-09-07T16:58:41;6.5;;;2.7;;
51515;SDS011;37603;55.614;37.326;2023-09-07T17:04:39;6.1;;;2.8;;
51515;SDS011;37603;55.614;37.326;2023-09-07T17:10:38;7.3;;;1.9;;
51515;SDS011;37603;55.614;37.326;2023-09-07T17:16:38;4.8;;;1.7;;
51515;SDS011;37603;55.614;37.326;2023-09-07T17:22:37;6.9;;;3.7;;
51515;SDS011;37603;55.614;37.326;2023-09-07T17:28:36;9.1;;;4.1;;
51515;SDS011;37603;55.614;37.326;2023-09-07T17:34:36;6.2;;;3.1;;
51515;SDS011;37603;55.614;37.326;2023-09-07T17:40:35;7.2;;;3.6;;
51515;SDS011;37603;55.614;37.326;2023-09-07T17:46:34;5.0;;;2.6;;
51515;SDS011;37603;55.614;37.326;2023-09-07T17:52:39;3.9;;;2.2;;
51515;SDS011;37603;55.614;37.326;2023-09-07T17:58:34;10.3;;;3.0;;
51515;SDS011;37603;55.614;37.326;2023-09-07T18:04:32;4.1;;;2.2;;
51515;SDS011;37603;55.614;37.326;2023-09-07T18:10:32;5.6;;;2.2;;
51515;SDS011;37603;55.614;37.326;2023-09-07T18:16:31;4.0;;;2.1;;
51515;SDS011;37603;55.614;37.326;2023-09-07T18:22:30;4.5;;;2.7;;
51515;SDS011;37603;55.614;37.326;2023-09-07T18:28:31;4.4;;;2.3;;
51515;SDS011;37603;55.614;37.326;2023-09-07T18:34:29;4.7;;;2.4;;
51515;SDS011;37603;55.614;37.326;2023-09-07T18:40:29;4.3;;;1.8;;
51515;SDS011;37603;55.614;37.326;2023-09-07T18:46:28;4.7;;;2.3;;
51515;SDS011;37603;55.614;37.326;2023-09-07T18:52:27;4.8;;;2.1;;
51515;SDS011;37603;55.614;37.326;2023-09-07T18:58:27;3.8;;;2.1;;
51515;SDS011;37603;55.614;37.326;2023-09-07T19:04:26;3.5;;;2.0;;
51515;SDS011;37603;55.614;37.326;2023-09-07T19:10:25;3.9;;;2.1;;
51515;SDS011;37603;55.614;37.326;2023-09-07T19:16:26;3.2;;;2.0;;
51515;SDS011;37603;55.614;37.326;2023-09-07T19:22:24;5.6;;;1.9;;
51515;SDS011;37603;55.614;37.326;2023-09-07T19:28:23;3.2;;;1.9;;
51515;SDS011;37603;55.614;37.326;2023-09-07T19:34:23;3.4;;;1.7;;
51515;SDS011;37603;55.614;37.326;2023-09-07T19:40:22;3.7;;;1.8;;
51515;SDS011;37603;55.614;37.326;2023-09-07T19:46:22;2.9;;;1.9;;
51515;SDS011;37603;55.614;37.326;2023-09-07T19:52:21;4.6;;;1.8;;
51515;SDS011;37603;55.614;37.326;2023-09-07T19:58:20;5.0;;;2.1;;
51515;SDS011;37603;55.614;37.326;2023-09-07T20:04:20;4.8;;;2.1;;
51515;SDS011;37603;55.614;37.326;2023-09-07T20:10:19;3.7;;;1.9;;
51515;SDS011;37603;55.614;37.326;2023-09-07T20:16:18;2.8;;;1.7;;
51515;SDS011;37603;55.614;37.326;2023-09-07T20:22:17;4.5;;;1.6;;
51515;SDS011;37603;55.614;37.326;2023-09-07T20:28:17;3.5;;;1.9;;
51515;SDS011;37603;55.614;37.326;2023-09-07T20:34:16;2.6;;;1.8;;
51515;SDS011;37603;55.614;37.326;2023-09-07T20:40:16;2.2;;;1.6;;
51515;SDS011;37603;55.614;37.326;2023-09-07T20:46:15;3.4;;;1.4;;
51515;SDS011;37603;55.614;37.326;2023-09-07T20:52:14;4.5;;;1.5;;
51515;SDS011;37603;55.614;37.326;2023-09-07T20:58:13;4.8;;;1.6;;
51515;SDS011;37603;55.614;37.326;2023-09-07T21:04:13;3.2;;;1.7;;
51515;SDS011;37603;55.614;37.326;2023-09-07T21:10:12;2.8;;;1.6;;
51515;SDS011;37603;55.614;37.326;2023-09-07T21:16:12;4.1;;;1.9;;
51515;SDS011;37603;55.614;37.326;2023-09-07T21:22:11;3.1;;;1.6;;
51515;SDS011;37603;55.614;37.326;2023-09-07T21:28:10;3.8;;;1.6;;
51515;SDS011;37603;55.614;37.326;2023-09-07T21:40:09;2.9;;;1.5;;
51515;SDS011;37603;55.614;37.326;2023-09-07T21:46:08;1.7;;;1.1;;
51515;SDS011;37603;55.614;37.326;2023-09-07T21:52:08;2.6;;;1.3;;
51515;SDS011;37603;55.614;37.326;2023-09-07T21:58:07;3.1;;;1.3;;
51515;SDS011;37603;55.614;37.326;2023-09-07T22:04:06;3.3;;;1.5;;
51515;SDS011;37603;55.614;37.326;2023-09-07T22:10:06;3.9;;;1.4;;
51515;SDS011;37603;55.614;37.326;2023-09-07T22:16:05;3.0;;;1.4;;
51515;SDS011;37603;55.614;37.326;2023-09-07T22:22:04;3.3;;;1.4;;
51515;SDS011;37603;55.614;37.326;2023-09-07T22:28:04;4.9;;;1.6;;
51515;SDS011;37603;55.614;37.326;2023-09-07T22:34:03;2.4;;;1.2;;
51515;SDS011;37603;55.614;37.326;2023-09-07T22:40:03;3.1;;;1.3;;
51515;SDS011;37603;55.614;37.326;2023-09-07T22:52:01;2.4;;;1.3;;
51515;SDS011;37603;55.614;37.326;2023-09-07T22:58:00;3.3;;;1.3;;
51515;SDS011;37603;55.614;37.326;2023-09-07T23:04:00;2.0;;;1.2;;
51515;SDS011;37603;55.614;37.326;2023-09-07T23:09:59;4.8;;;1.4;;
51515;SDS011;37603;55.614;37.326;2023-09-07T23:15:58;2.0;;;1.3;;
51515;SDS011;37603;55.614;37.326;2023-09-07T23:21:58;3.6;;;1.5;;
51515;SDS011;37603;55.614;37.326;2023-09-07T23:27:57;2.4;;;1.2;;
51515;SDS011;37603;55.614;37.326;2023-09-07T23:33:57;3.4;;;1.5;;
51515;SDS011;37603;55.614;37.326;2023-09-07T23:39:56;2.2;;;1.2;;
51515;SDS011;37603;55.614;37.326;2023-09-07T23:45:55;2.9;;;1.2;;
51515;SDS011;37603;55.614;37.326;2023-09-07T23:51:54;1.7;;;1.1;;
51515;SDS011;37603;55.614;37.326;2023-09-07T23:57:57;3.0;;;1.2;;
